Time;durP1;ratioP1;P1;durP2;ratioP2;P2;SDS_P1;SDS_P2;PMS_P1;PMS_P2;Temp;Humidity;BMP_temperature;BMP_pressure;BME280_temperature;BME280_humidity;BME280_pressure;Samples;Min_cycle;Max_cycle;Signal;HPM_P1;HPM_P2
2022/12/01 00:01:00;;;;;;;10.30;9.13;;;;;;;;;;5045794;28;20537;-68
2022/12/01 00:03:29;;;;;;;11.40;10.20;;;;;;;;;;5050501;28;20453;-67
2022/12/01 00:06:02;;;;;;;8.47;7.67;;;;;;;;;;5044460;28;20439;-67
2022/12/01 00:08:28;;;;;;;8.77;7.97;;;;;;;;;;5049037;28;20495;-67
2022/12/01 00:10:54;;;;;;;9.87;8.87;;;;;;;;;;5048511;28;20497;-67
2022/12/01 00:13:20;;;;;;;10.23;9.10;;;;;;;;;;5048870;28;20570;-66
2022/12/01 00:15:47;;;;;;;12.43;9.90;;;;;;;;;;5046427;28;20443;-66
2022/12/01 00:18:13;;;;;;;8.73;7.93;;;;;;;;;;5050739;28;20438;-66
2022/12/01 00:20:39;;;;;;;8.20;7.40;;;;;;;;;;5042634;28;20435;-67
2022/12/01 00:23:05;;;;;;;9.70;8.27;;;;;;;;;;5047497;28;20517;-66
2022/12/01 00:25:31;;;;;;;12.97;8.73;;;;;;;;;;5046164;28;20528;-67
2022/12/01 00:27:57;;;;;;;13.40;9.73;;;;;;;;;;5049199;28;20443;-67
2022/12/01 00:30:23;;;;;;;10.87;8.50;;;;;;;;;;5048142;28;20430;-66
2022/12/01 00:32:49;;;;;;;10.93;9.00;;;;;;;;;;5042399;28;20498;-67
2022/12/01 00:35:16;;;;;;;9.37;7.40;;;;;;;;;;5048195;28;20430;-67
2022/12/01 00:37:42;;;;;;;8.40;7.60;;;;;;;;;;5048394;28;20438;-67
2022/12/01 00:40:08;;;;;;;9.57;8.10;;;;;;;;;;5049140;28;20426;-67
2022/12/01 00:42:34;;;;;;;8.60;7.70;;;;;;;;;;5048260;28;20469;-66
2022/12/01 00:45:00;;;;;;;11.27;9.53;;;;;;;;;;5047595;28;20515;-66
2022/12/01 00:47:26;;;;;;;10.93;8.50;;;;;;;;;;5045947;28;21070;-67
2022/12/01 00:49:52;;;;;;;10.90;8.17;;;;;;;;;;5045487;28;20469;-67
2022/12/01 00:52:19;;;;;;;9.33;8.43;;;;;;;;;;5048129;28;20927;-66
2022/12/01 00:54:45;;;;;;;8.10;7.40;;;;;;;;;;5046976;28;20461;-67
2022/12/01 00:57:11;;;;;;;9.90;9.00;;;;;;;;;;5043603;28;20529;-67
2022/12/01 00:59:37;;;;;;;8.80;7.90;;;;;;;;;;5044645;28;20445;-66
2022/12/01 01:02:04;;;;;;;10.30;7.77;;;;;;;;;;5046440;28;20431;-67
2022/12/01 01:04:30;;;;;;;8.47;7.63;;;;;;;;;;5047463;28;20453;-67
2022/12/01 01:06:56;;;;;;;8.70;7.60;;;;;;;;;;5046181;28;20446;-67
2022/12/01 01:09:22;;;;;;;8.97;7.97;;;;;;;;;;5046654;28;20434;-67
2022/12/01 01:11:48;;;;;;;6.70;6.10;;;;;;;;;;5044198;28;20884;-67
2022/12/01 01:14:14;;;;;;;8.87;7.97;;;;;;;;;;5046132;28;20438;-67
2022/12/01 01:16:40;;;;;;;8.33;7.50;;;;;;;;;;5047679;28;20430;-67
2022/12/01 01:19:06;;;;;;;11.03;8.23;;;;;;;;;;5044959;28;20969;-66
2022/12/01 01:21:32;;;;;;;9.00;8.07;;;;;;;;;;5043949;28;20443;-67
2022/12/01 01:23:58;;;;;;;8.30;7.50;;;;;;;;;;5046544;28;20422;-67
2022/12/01 01:26:26;;;;;;;8.50;7.00;;;;;;;;;;5045198;28;20989;-67
2022/12/01 01:28:52;;;;;;;7.63;7.03;;;;;;;;;;5048985;28;20529;-67
2022/12/01 01:31:20;;;;;;;9.10;8.13;;;;;;;;;;5046197;28;20488;-67
2022/12/01 01:33:48;;;;;;;8.23;7.43;;;;;;;;;;5046826;28;20513;-67
2022/12/01 01:36:14;;;;;;;8.37;7.47;;;;;;;;;;5044738;28;20536;-66
2022/12/01 01:38:41;;;;;;;7.13;6.53;;;;;;;;;;5047383;28;20472;-67
2022/12/01 01:41:07;;;;;;;7.87;7.17;;;;;;;;;;5046937;28;20438;-67
2022/12/01 01:43:56;;;;;;;12.80;8.20;;;;;;;;;;5049501;28;20426;-66
2022/12/01 01:46:30;;;;;;;7.07;6.43;;;;;;;;;;5036931;28;20528;-67
2022/12/01 01:48:59;;;;;;;7.10;5.53;;;;;;;;;;5047574;28;20827;-67
2022/12/01 01:51:31;;;;;;;7.13;6.30;;;;;;;;;;5046771;28;20473;-67
2022/12/01 01:53:59;;;;;;;5.60;5.20;;;;;;;;;;5046135;28;20433;-67
2022/12/01 01:56:25;;;;;;;11.70;6.77;;;;;;;;;;5044651;28;20442;-66
2022/12/01 01:58:52;;;;;;;7.30;6.60;;;;;;;;;;5047157;28;20441;-67
2022/12/01 02:01:18;;;;;;;11.27;7.27;;;;;;;;;;5045771;28;20430;-67
2022/12/01 02:03:44;;;;;;;8.20;7.37;;;;;;;;;;5047535;28;20876;-66
2022/12/01 02:06:11;;;;;;;8.90;8.00;;;;;;;;;;5046382;28;20530;-67
2022/12/01 02:08:37;;;;;;;7.60;6.90;;;;;;;;;;5045719;28;20938;-67
2022/12/01 02:11:28;;;;;;;8.50;7.10;;;;;;;;;;5045469;28;20595;-67
2022/12/01 02:14:13;;;;;;;13.17;7.27;;;;;;;;;;5043199;28;21128;-66
2022/12/01 02:16:41;;;;;;;11.13;6.83;;;;;;;;;;5045246;28;20975;-66
2022/12/01 02:19:26;;;;;;;12.43;7.90;;;;;;;;;;5046873;28;20430;-66
2022/12/01 02:22:12;;;;;;;8.07;6.93;;;;;;;;;;5045339;28;20434;-67
2022/12/01 02:24:55;;;;;;;9.90;7.53;;;;;;;;;;5045601;28;20934;-66
2022/12/01 02:27:39;;;;;;;7.23;6.53;;;;;;;;;;5043683;28;20434;-66
2022/12/01 02:30:15;;;;;;;10.13;7.43;;;;;;;;;;5044949;28;20448;-68
2022/12/01 02:32:56;;;;;;;11.10;8.83;;;;;;;;;;5045064;28;20519;-66
2022/12/01 02:35:49;;;;;;;8.83;7.90;;;;;;;;;;5046781;28;20445;-67
2022/12/01 02:38:28;;;;;;;11.80;9.00;;;;;;;;;;5027415;28;20461;-66
2022/12/01 02:41:02;;;;;;;7.93;7.10;;;;;;;;;;5049466;28;20445;-67
2022/12/01 02:43:32;;;;;;;12.60;8.80;;;;;;;;;;5048590;28;20422;-67
2022/12/01 02:46:02;;;;;;;13.23;8.47;;;;;;;;;;5050045;28;20930;-67
2022/12/01 02:48:28;;;;;;;11.77;8.57;;;;;;;;;;5047618;28;20473;-66
2022/12/01 02:50:55;;;;;;;12.50;8.70;;;;;;;;;;5048798;28;20493;-67
2022/12/01 02:53:21;;;;;;;12.20;8.43;;;;;;;;;;5047973;28;20442;-67
2022/12/01 02:55:54;;;;;;;14.73;9.50;;;;;;;;;;5050091;28;20792;-66
2022/12/01 02:58:21;;;;;;;14.20;8.83;;;;;;;;;;5049426;28;20514;-67
2022/12/01 03:01:07;;;;;;;11.17;7.90;;;;;;;;;;5045528;28;20803;-67
2022/12/01 03:03:36;;;;;;;12.83;7.93;;;;;;;;;;4999978;28;20442;-67
2022/12/01 03:06:07;;;;;;;14.37;10.27;;;;;;;;;;5045585;28;20509;-67
2022/12/01 03:08:44;;;;;;;10.00;7.97;;;;;;;;;;5046262;28;20587;-67
2022/12/01 03:11:25;;;;;;;16.23;9.10;;;;;;;;;;5049008;28;20833;-67
2022/12/01 03:13:54;;;;;;;15.00;8.83;;;;;;;;;;5050764;28;20427;-67
2022/12/01 03:16:26;;;;;;;13.07;8.73;;;;;;;;;;5047678;28;20576;-67
2022/12/01 03:18:55;;;;;;;13.07;10.00;;;;;;;;;;5051761;28;20426;-67
2022/12/01 03:21:28;;;;;;;13.80;10.53;;;;;;;;;;5049392;28;20441;-66
2022/12/01 03:24:05;;;;;;;14.93;9.47;;;;;;;;;;5045288;28;21007;-67
2022/12/01 03:26:32;;;;;;;16.87;10.27;;;;;;;;;;5050520;28;20438;-66
2022/12/01 03:29:01;;;;;;;13.30;9.37;;;;;;;;;;5049777;28;20491;-67
2022/12/01 03:31:30;;;;;;;12.67;8.77;;;;;;;;;;5049162;28;20481;-66
2022/12/01 03:34:02;;;;;;;11.87;9.90;;;;;;;;;;5047135;28;20439;-68
2022/12/01 03:36:32;;;;;;;15.43;10.00;;;;;;;;;;5049505;28;20927;-67
2022/12/01 03:38:59;;;;;;;10.90;8.37;;;;;;;;;;5048217;28;20540;-66
2022/12/01 03:41:28;;;;;;;14.53;8.93;;;;;;;;;;5048782;28;20640;-66
2022/12/01 03:44:02;;;;;;;17.43;9.33;;;;;;;;;;5049797;28;20507;-66
2022/12/01 03:46:44;;;;;;;11.53;7.83;;;;;;;;;;5050234;28;20430;-67
2022/12/01 03:49:10;;;;;;;14.93;8.67;;;;;;;;;;5049183;28;20515;-67
2022/12/01 03:51:42;;;;;;;13.27;9.50;;;;;;;;;;5049204;28;20985;-67
2022/12/01 03:54:14;;;;;;;8.80;7.07;;;;;;;;;;5048775;28;20431;-67
2022/12/01 03:56:47;;;;;;;15.80;8.77;;;;;;;;;;5047121;28;20442;-67
2022/12/01 03:59:13;;;;;;;10.73;8.53;;;;;;;;;;5048065;28;20426;-67
2022/12/01 04:01:39;;;;;;;9.10;7.93;;;;;;;;;;5049353;28;20529;-67
2022/12/01 04:04:10;;;;;;;11.37;7.60;;;;;;;;;;5045864;28;20999;-67
2022/12/01 04:06:36;;;;;;;13.27;7.53;;;;;;;;;;5049166;28;20528;-67
2022/12/01 04:09:03;;;;;;;11.97;8.93;;;;;;;;;;5045962;28;20442;-67
2022/12/01 04:14:14;;;;;;;10.60;6.40;;;;;;;;;;5050323;28;20441;-67
2022/12/01 04:16:40;;;;;;;9.33;6.80;;;;;;;;;;5049803;28;20430;-66
2022/12/01 04:19:06;;;;;;;9.53;7.23;;;;;;;;;;5050165;28;20444;-67
2022/12/01 04:21:32;;;;;;;10.53;8.30;;;;;;;;;;5048465;28;20430;-67
2022/12/01 04:24:01;;;;;;;11.50;7.07;;;;;;;;;;5048661;28;20433;-68
2022/12/01 04:26:31;;;;;;;8.07;6.67;;;;;;;;;;5047296;28;20459;-68
2022/12/01 04:28:58;;;;;;;8.30;7.20;;;;;;;;;;5048712;28;20499;-68
2022/12/01 04:31:24;;;;;;;8.60;6.90;;;;;;;;;;5048231;28;20484;-68
2022/12/01 04:33:50;;;;;;;8.87;6.83;;;;;;;;;;5048930;28;20422;-68
2022/12/01 04:36:16;;;;;;;8.73;7.10;;;;;;;;;;5049153;28;20922;-68
2022/12/01 04:38:42;;;;;;;9.67;6.63;;;;;;;;;;5045564;28;20803;-68
2022/12/01 04:41:09;;;;;;;10.00;7.57;;;;;;;;;;5045523;28;20488;-68
2022/12/01 04:43:35;;;;;;;7.80;6.50;;;;;;;;;;5049703;28;20504;-68
2022/12/01 04:46:01;;;;;;;8.10;7.30;;;;;;;;;;5048019;28;20434;-67
2022/12/01 04:48:27;;;;;;;8.47;6.70;;;;;;;;;;5049428;28;21376;-68
2022/12/01 04:50:53;;;;;;;8.27;7.00;;;;;;;;;;5045595;28;20438;-67
2022/12/01 04:53:19;;;;;;;6.57;5.97;;;;;;;;;;5047594;28;20462;-68
2022/12/01 04:55:45;;;;;;;5.97;5.40;;;;;;;;;;5047394;28;20426;-67
2022/12/01 04:58:11;;;;;;;7.57;5.40;;;;;;;;;;5048899;28;20851;-67
2022/12/01 05:00:37;;;;;;;6.47;5.83;;;;;;;;;;5045783;28;21031;-67
2022/12/01 05:03:03;;;;;;;8.87;6.40;;;;;;;;;;5046079;28;20434;-67
2022/12/01 05:05:29;;;;;;;6.20;5.67;;;;;;;;;;5049021;28;20464;-67
2022/12/01 05:07:55;;;;;;;5.37;4.90;;;;;;;;;;5048825;28;20953;-68
2022/12/01 05:10:21;;;;;;;7.30;5.10;;;;;;;;;;5045961;28;20426;-67
2022/12/01 05:12:47;;;;;;;6.57;5.60;;;;;;;;;;5047797;28;20486;-67
2022/12/01 05:15:13;;;;;;;9.00;5.40;;;;;;;;;;5049016;28;20942;-67
2022/12/01 05:17:39;;;;;;;5.63;5.13;;;;;;;;;;5046622;28;20437;-67
2022/12/01 05:22:51;;;;;;;6.70;5.87;;;;;;;;;;5049407;28;20426;-68
2022/12/01 05:25:17;;;;;;;15.17;6.40;;;;;;;;;;5049605;28;20406;-68
2022/12/01 05:27:44;;;;;;;8.00;6.90;;;;;;;;;;5049619;28;20805;-67
2022/12/01 05:30:10;;;;;;;7.20;6.50;;;;;;;;;;5047786;28;20429;-67
2022/12/01 05:32:36;;;;;;;6.37;5.57;;;;;;;;;;5042959;28;20496;-67
2022/12/01 05:35:02;;;;;;;5.87;5.40;;;;;;;;;;5049273;28;20418;-67
2022/12/01 05:37:32;;;;;;;6.30;5.77;;;;;;;;;;5049480;28;20445;-66
2022/12/01 05:39:58;;;;;;;10.27;7.63;;;;;;;;;;5048653;28;20489;-67
2022/12/01 05:42:24;;;;;;;7.63;6.93;;;;;;;;;;5046723;28;20430;-66
2022/12/01 05:44:50;;;;;;;10.30;6.77;;;;;;;;;;5049391;28;20430;-67
2022/12/01 05:47:15;;;;;;;9.33;6.70;;;;;;;;;;5048095;28;20488;-66
2022/12/01 05:49:41;;;;;;;7.40;6.70;;;;;;;;;;5049105;28;20899;-66
2022/12/01 05:52:09;;;;;;;7.40;6.67;;;;;;;;;;5049288;28;20521;-66
2022/12/01 05:54:35;;;;;;;10.27;7.00;;;;;;;;;;5049217;28;20414;-66
2022/12/01 05:57:01;;;;;;;8.00;6.77;;;;;;;;;;5042547;28;20499;-66
2022/12/01 05:59:27;;;;;;;12.20;7.00;;;;;;;;;;5047743;28;20517;-66
2022/12/01 06:01:53;;;;;;;8.40;6.50;;;;;;;;;;5049173;28;20905;-67
2022/12/01 06:04:18;;;;;;;8.17;7.47;;;;;;;;;;5046834;28;20433;-66
2022/12/01 06:06:44;;;;;;;6.60;6.00;;;;;;;;;;5046452;28;20493;-66
2022/12/01 06:09:10;;;;;;;7.70;6.50;;;;;;;;;;5044758;28;20801;-68
2022/12/01 06:11:36;;;;;;;10.07;8.23;;;;;;;;;;5049494;28;20481;-66
2022/12/01 06:14:02;;;;;;;8.00;6.73;;;;;;;;;;5052865;28;20462;-67
2022/12/01 06:16:28;;;;;;;6.77;6.17;;;;;;;;;;5044293;28;20513;-66
2022/12/01 06:18:54;;;;;;;7.57;6.70;;;;;;;;;;5050534;28;20516;-66
2022/12/01 06:21:21;;;;;;;8.63;7.47;;;;;;;;;;5048789;28;20521;-66
2022/12/01 06:23:47;;;;;;;6.43;5.80;;;;;;;;;;5051026;28;20797;-66
2022/12/01 06:26:13;;;;;;;10.97;7.20;;;;;;;;;;5051008;28;20422;-66
2022/12/01 06:28:39;;;;;;;7.67;6.73;;;;;;;;;;5052447;28;20425;-66
2022/12/01 06:31:05;;;;;;;9.07;7.07;;;;;;;;;;5050141;28;20839;-66
2022/12/01 06:33:31;;;;;;;12.17;7.60;;;;;;;;;;5041626;28;20529;-66
2022/12/01 06:35:58;;;;;;;8.93;8.07;;;;;;;;;;5049157;28;20422;-67
2022/12/01 06:38:24;;;;;;;11.63;7.50;;;;;;;;;;5046793;28;20441;-66
2022/12/01 06:40:50;;;;;;;12.60;8.47;;;;;;;;;;5050337;28;20433;-67
2022/12/01 06:43:16;;;;;;;8.17;6.73;;;;;;;;;;5050702;28;21083;-67
2022/12/01 06:45:42;;;;;;;6.97;6.17;;;;;;;;;;5051861;28;20422;-66
2022/12/01 06:48:08;;;;;;;9.23;7.97;;;;;;;;;;5048381;28;20492;-66
2022/12/01 06:50:34;;;;;;;9.10;8.20;;;;;;;;;;5050310;28;20527;-66
2022/12/01 06:53:00;;;;;;;10.33;7.43;;;;;;;;;;5050073;28;20843;-67
2022/12/01 06:55:26;;;;;;;7.80;6.53;;;;;;;;;;5051812;28;20438;-67
2022/12/01 06:57:52;;;;;;;8.47;7.40;;;;;;;;;;5048115;28;20425;-65
2022/12/01 07:00:18;;;;;;;9.37;6.50;;;;;;;;;;5045823;28;20434;-66
2022/12/01 07:02:44;;;;;;;8.43;7.50;;;;;;;;;;5046024;28;20430;-67
2022/12/01 07:05:10;;;;;;;9.30;6.97;;;;;;;;;;5048220;28;20439;-66
2022/12/01 07:07:37;;;;;;;15.60;7.20;;;;;;;;;;5046331;28;20828;-67
2022/12/01 07:10:03;;;;;;;14.20;7.43;;;;;;;;;;5049193;28;20537;-65
2022/12/01 07:12:32;;;;;;;8.47;6.80;;;;;;;;;;5028508;28;20482;-67
2022/12/01 07:14:58;;;;;;;12.03;7.80;;;;;;;;;;5049736;28;20852;-66
2022/12/01 07:17:24;;;;;;;8.87;7.30;;;;;;;;;;5049415;28;20443;-66
2022/12/01 07:19:50;;;;;;;13.33;7.53;;;;;;;;;;5048301;28;20487;-66
2022/12/01 07:22:16;;;;;;;10.00;7.97;;;;;;;;;;5044410;28;20825;-66
2022/12/01 07:24:42;;;;;;;9.77;7.73;;;;;;;;;;5049976;28;20418;-67
2022/12/01 07:27:08;;;;;;;10.00;7.77;;;;;;;;;;5048589;28;20446;-67
2022/12/01 07:29:34;;;;;;;11.37;8.13;;;;;;;;;;5048163;28;20439;-67
2022/12/01 07:32:00;;;;;;;8.20;7.37;;;;;;;;;;5044784;28;20478;-67
2022/12/01 07:34:26;;;;;;;10.87;9.10;;;;;;;;;;5042915;28;20426;-67
2022/12/01 07:36:52;;;;;;;12.30;9.00;;;;;;;;;;5050149;28;20438;-67
2022/12/01 07:39:18;;;;;;;11.50;8.93;;;;;;;;;;5051077;28;20577;-67
2022/12/01 07:41:44;;;;;;;9.77;8.23;;;;;;;;;;5043042;28;20954;-66
2022/12/01 07:44:10;;;;;;;8.87;7.97;;;;;;;;;;5030447;28;20446;-66
2022/12/01 07:46:36;;;;;;;15.30;8.57;;;;;;;;;;5031849;28;20486;-67
2022/12/01 07:49:05;;;;;;;10.40;8.47;;;;;;;;;;5033009;28;20446;-66
2022/12/01 07:51:31;;;;;;;11.70;8.80;;;;;;;;;;5041910;28;20910;-67
2022/12/01 07:54:01;;;;;;;10.10;9.03;;;;;;;;;;5042816;28;20434;-67
2022/12/01 07:56:27;;;;;;;11.40;6.90;;;;;;;;;;5039767;28;20426;-65
2022/12/01 07:58:52;;;;;;;9.97;7.03;;;;;;;;;;5050967;28;20441;-66
2022/12/01 08:01:20;;;;;;;13.33;9.30;;;;;;;;;;5049201;28;20446;-66
2022/12/01 08:03:47;;;;;;;11.50;9.23;;;;;;;;;;5044986;28;20456;-66
2022/12/01 08:06:13;;;;;;;8.60;7.40;;;;;;;;;;5041555;28;20958;-66
2022/12/01 08:08:40;;;;;;;12.53;8.70;;;;;;;;;;5034315;28;20527;-66
2022/12/01 08:11:13;;;;;;;14.20;9.70;;;;;;;;;;5028248;28;20485;-66
2022/12/01 08:13:40;;;;;;;9.70;8.40;;;;;;;;;;5029645;28;20447;-66
2022/12/01 08:16:07;;;;;;;10.43;9.33;;;;;;;;;;5027787;28;20470;-66
2022/12/01 08:18:37;;;;;;;11.93;9.40;;;;;;;;;;5042681;28;21178;-67
2022/12/01 08:21:03;;;;;;;10.20;9.07;;;;;;;;;;5030743;28;20525;-66
2022/12/01 08:23:31;;;;;;;11.70;8.53;;;;;;;;;;5032960;28;20476;-66
2022/12/01 08:26:00;;;;;;;10.97;8.20;;;;;;;;;;5029057;28;20544;-66
2022/12/01 08:28:26;;;;;;;13.30;9.03;;;;;;;;;;5033661;28;20442;-67
2022/12/01 08:30:52;;;;;;;11.50;9.33;;;;;;;;;;5027555;28;20431;-66
2022/12/01 08:33:18;;;;;;;11.13;9.90;;;;;;;;;;5029738;28;20448;-66
2022/12/01 08:35:44;;;;;;;10.40;8.80;;;;;;;;;;5027029;28;20435;-66
2022/12/01 08:38:11;;;;;;;10.63;9.43;;;;;;;;;;5028819;28;20863;-66
2022/12/01 08:40:37;;;;;;;15.77;9.10;;;;;;;;;;5034254;28;20454;-67
2022/12/01 08:43:03;;;;;;;12.23;9.07;;;;;;;;;;5036526;28;20931;-67
2022/12/01 08:45:28;;;;;;;11.83;9.10;;;;;;;;;;5027984;28;20446;-65
2022/12/01 08:47:57;;;;;;;14.40;10.47;;;;;;;;;;5030598;28;20482;-66
2022/12/01 08:50:24;;;;;;;14.80;9.60;;;;;;;;;;5024838;28;20549;-66
2022/12/01 08:52:50;;;;;;;13.60;9.97;;;;;;;;;;5023027;28;20555;-66
2022/12/01 08:55:16;;;;;;;14.10;10.30;;;;;;;;;;5028521;28;20431;-66
2022/12/01 08:57:42;;;;;;;12.60;9.40;;;;;;;;;;5029677;28;20469;-66
2022/12/01 09:00:09;;;;;;;28.20;10.77;;;;;;;;;;5032069;28;20431;-67
2022/12/01 09:02:35;;;;;;;10.40;9.17;;;;;;;;;;5044400;28;20445;-67
2022/12/01 09:05:01;;;;;;;12.53;10.70;;;;;;;;;;5048675;28;20434;-67
2022/12/01 09:07:26;;;;;;;11.00;8.83;;;;;;;;;;5046708;28;20476;-68
2022/12/01 09:09:52;;;;;;;11.10;9.33;;;;;;;;;;5029013;28;20505;-66
2022/12/01 09:12:19;;;;;;;15.90;9.80;;;;;;;;;;5029520;28;20492;-65
2022/12/01 09:14:47;;;;;;;13.20;9.30;;;;;;;;;;5047577;28;20431;-65
2022/12/01 09:17:13;;;;;;;11.83;9.50;;;;;;;;;;5049859;28;20473;-66
2022/12/01 09:19:39;;;;;;;17.97;12.43;;;;;;;;;;5039663;28;20526;-65
2022/12/01 09:22:05;;;;;;;10.67;9.10;;;;;;;;;;5028569;28;20523;-66
2022/12/01 09:24:31;;;;;;;13.48;10.90;;;;;;;;;;5031715;28;20433;-65
2022/12/01 09:26:58;;;;;;;14.23;10.57;;;;;;;;;;5031190;28;20246;-62
2022/12/01 09:29:24;;;;;;;14.90;10.00;;;;;;;;;;5043617;28;20434;-68
2022/12/01 09:31:50;;;;;;;12.00;9.57;;;;;;;;;;5049507;28;20466;-65
2022/12/01 09:34:18;;;;;;;14.80;10.23;;;;;;;;;;5049286;28;20435;-66
2022/12/01 09:36:44;;;;;;;17.00;10.80;;;;;;;;;;5047015;28;20445;-65
2022/12/01 09:39:18;;;;;;;16.07;10.03;;;;;;;;;;5046178;28;20438;-64
2022/12/01 09:41:46;;;;;;;13.03;10.23;;;;;;;;;;5048610;28;20925;-64
2022/12/01 09:44:22;;;;;;;13.90;8.97;;;;;;;;;;5049168;28;20933;-66
2022/12/01 09:46:57;;;;;;;13.70;9.43;;;;;;;;;;5051372;28;20457;-66
2022/12/01 09:49:28;;;;;;;14.83;10.17;;;;;;;;;;5035603;28;20430;-66
2022/12/01 09:51:54;;;;;;;15.77;10.17;;;;;;;;;;5034812;28;20565;-65
2022/12/01 09:54:21;;;;;;;10.77;8.80;;;;;;;;;;5029933;28;20481;-66
2022/12/01 09:56:49;;;;;;;14.93;10.37;;;;;;;;;;5032140;28;20508;-66
2022/12/01 09:59:23;;;;;;;16.50;10.23;;;;;;;;;;5031855;28;20427;-66
2022/12/01 10:01:54;;;;;;;12.47;9.47;;;;;;;;;;5030675;28;20501;-66
2022/12/01 10:04:27;;;;;;;14.63;10.23;;;;;;;;;;5046341;28;20422;-66
2022/12/01 10:06:53;;;;;;;15.23;11.33;;;;;;;;;;5051162;28;20809;-66
2022/12/01 10:09:28;;;;;;;18.40;9.70;;;;;;;;;;5051647;28;20922;-66
2022/12/01 10:11:57;;;;;;;20.77;11.70;;;;;;;;;;5052486;28;20481;-66
2022/12/01 10:14:23;;;;;;;15.10;10.30;;;;;;;;;;5051182;28;21028;-66
2022/12/01 10:17:04;;;;;;;13.97;10.73;;;;;;;;;;5052962;28;20418;-66
2022/12/01 10:19:46;;;;;;;11.70;9.43;;;;;;;;;;5052845;28;20438;-66
2022/12/01 10:22:31;;;;;;;11.13;9.43;;;;;;;;;;5047393;28;20421;-66
2022/12/01 10:25:05;;;;;;;13.07;10.33;;;;;;;;;;5052383;28;20952;-66
2022/12/01 10:27:31;;;;;;;18.40;10.50;;;;;;;;;;5051837;28;20521;-65
2022/12/01 10:29:57;;;;;;;14.03;10.60;;;;;;;;;;5052768;28;20505;-66
2022/12/01 10:32:29;;;;;;;16.40;9.40;;;;;;;;;;5051351;28;20486;-66
2022/12/01 10:34:55;;;;;;;17.20;9.13;;;;;;;;;;5052515;28;20505;-66
2022/12/01 10:37:23;;;;;;;11.77;9.33;;;;;;;;;;5052839;28;20433;-66
2022/12/01 10:39:51;;;;;;;14.40;9.60;;;;;;;;;;5052660;28;20418;-66
2022/12/01 10:42:23;;;;;;;11.13;9.90;;;;;;;;;;5052088;28;20964;-66
2022/12/01 10:44:49;;;;;;;14.60;9.40;;;;;;;;;;5052844;28;20791;-65
2022/12/01 10:47:18;;;;;;;17.03;10.23;;;;;;;;;;5048645;28;20533;-65
2022/12/01 10:49:44;;;;;;;16.90;10.67;;;;;;;;;;5048768;28;20953;-66
2022/12/01 10:52:30;;;;;;;16.23;11.53;;;;;;;;;;5047044;28;20486;-66
2022/12/01 10:54:56;;;;;;;16.33;11.73;;;;;;;;;;5051066;28;20529;-66
2022/12/01 10:57:22;;;;;;;16.57;11.20;;;;;;;;;;5050074;28;20517;-66
2022/12/01 11:00:00;;;;;;;14.37;9.63;;;;;;;;;;5052364;28;20476;-66
2022/12/01 11:02:28;;;;;;;15.70;9.93;;;;;;;;;;5049501;28;20537;-67
2022/12/01 11:04:58;;;;;;;23.67;10.57;;;;;;;;;;5051693;28;20433;-66
2022/12/01 11:07:29;;;;;;;13.87;9.70;;;;;;;;;;5051742;28;20475;-67
2022/12/01 11:10:01;;;;;;;14.80;11.03;;;;;;;;;;5050084;28;20423;-66
2022/12/01 11:12:28;;;;;;;18.60;11.77;;;;;;;;;;5046557;28;20520;-66
2022/12/01 11:14:54;;;;;;;12.50;9.40;;;;;;;;;;5049247;28;20438;-66
2022/12/01 11:17:29;;;;;;;17.87;9.87;;;;;;;;;;5038237;28;20534;-66
2022/12/01 11:19:55;;;;;;;17.27;11.90;;;;;;;;;;5034890;28;20572;-65
2022/12/01 11:22:25;;;;;;;13.30;10.47;;;;;;;;;;5032026;28;20506;-66
2022/12/01 11:24:54;;;;;;;15.80;9.57;;;;;;;;;;5033696;28;20444;-65
2022/12/01 11:27:22;;;;;;;14.77;10.37;;;;;;;;;;5032624;28;20439;-65
2022/12/01 11:29:50;;;;;;;13.57;9.53;;;;;;;;;;5033719;28;20435;-65
2022/12/01 11:32:26;;;;;;;12.93;9.97;;;;;;;;;;5031717;28;20495;-65
2022/12/01 11:35:11;;;;;;;15.10;10.40;;;;;;;;;;5032203;28;20842;-65
2022/12/01 11:37:38;;;;;;;23.93;10.60;;;;;;;;;;5031794;28;20435;-65
2022/12/01 11:40:13;;;;;;;15.07;10.47;;;;;;;;;;5032352;28;20430;-66
2022/12/01 11:42:40;;;;;;;17.37;13.17;;;;;;;;;;5030835;28;20504;-66
2022/12/01 11:45:06;;;;;;;14.03;10.37;;;;;;;;;;5034475;28;20802;-65
2022/12/01 11:47:32;;;;;;;14.17;10.40;;;;;;;;;;5039064;28;20582;-66
2022/12/01 11:50:02;;;;;;;13.40;10.13;;;;;;;;;;5032334;28;20515;-65
2022/12/01 11:52:37;;;;;;;13.00;9.87;;;;;;;;;;5032225;28;20482;-66
2022/12/01 11:55:12;;;;;;;12.93;11.10;;;;;;;;;;5035322;28;20442;-65
2022/12/01 11:57:40;;;;;;;17.17;10.17;;;;;;;;;;5050672;28;20437;-65
2022/12/01 12:00:16;;;;;;;15.70;11.40;;;;;;;;;;5049859;28;20936;-65
2022/12/01 12:02:48;;;;;;;15.17;10.37;;;;;;;;;;5050983;28;20442;-66
2022/12/01 12:05:14;;;;;;;15.20;10.93;;;;;;;;;;5049642;28;20434;-66
2022/12/01 12:07:40;;;;;;;14.20;10.00;;;;;;;;;;5037000;28;20428;-65
2022/12/01 12:10:12;;;;;;;14.37;10.30;;;;;;;;;;5045681;28;20434;-66
2022/12/01 12:13:02;;;;;;;14.00;10.80;;;;;;;;;;5049700;28;20583;-66
2022/12/01 12:15:44;;;;;;;15.07;10.00;;;;;;;;;;5049069;28;20495;-66
2022/12/01 12:18:19;;;;;;;16.60;11.60;;;;;;;;;;5048814;28;21873;-66
2022/12/01 12:20:56;;;;;;;19.40;12.30;;;;;;;;;;5049334;28;20529;-66
2022/12/01 12:23:34;;;;;;;16.27;11.10;;;;;;;;;;5049420;28;20438;-66
2022/12/01 12:26:09;;;;;;;13.20;11.17;;;;;;;;;;5048569;28;20434;-66
2022/12/01 12:28:54;;;;;;;12.40;10.23;;;;;;;;;;5043662;28;20440;-65
2022/12/01 12:31:26;;;;;;;18.33;11.23;;;;;;;;;;5049148;28;20462;-66
2022/12/01 12:33:52;;;;;;;16.73;10.13;;;;;;;;;;5047157;28;20443;-65
2022/12/01 12:36:27;;;;;;;13.90;9.80;;;;;;;;;;5045401;28;20942;-66
2022/12/01 12:38:59;;;;;;;13.43;8.90;;;;;;;;;;5049823;28;20437;-65
2022/12/01 12:41:36;;;;;;;16.20;10.40;;;;;;;;;;5047453;28;20471;-66
2022/12/01 12:44:08;;;;;;;16.03;11.90;;;;;;;;;;5040656;28;20434;-66
2022/12/01 12:46:49;;;;;;;18.40;9.93;;;;;;;;;;5047162;28;21525;-66
2022/12/01 12:49:15;;;;;;;16.73;9.90;;;;;;;;;;5045962;28;20446;-66
2022/12/01 12:51:50;;;;;;;17.63;9.77;;;;;;;;;;5046047;28;20481;-66
2022/12/01 12:54:29;;;;;;;12.40;9.30;;;;;;;;;;5048735;28;20437;-66
2022/12/01 12:56:58;;;;;;;18.60;9.60;;;;;;;;;;5046614;28;20433;-66
2022/12/01 12:59:28;;;;;;;12.90;9.47;;;;;;;;;;5046765;28;20430;-67
2022/12/01 13:01:57;;;;;;;12.37;9.20;;;;;;;;;;5049020;28;21006;-66
2022/12/01 13:04:27;;;;;;;12.40;9.90;;;;;;;;;;5048358;28;20425;-66
2022/12/01 13:07:16;;;;;;;14.13;10.50;;;;;;;;;;5047163;28;20476;-66
2022/12/01 13:09:44;;;;;;;14.40;9.70;;;;;;;;;;5042345;28;20528;-66
2022/12/01 13:12:15;;;;;;;11.50;10.10;;;;;;;;;;5048592;28;20477;-66
2022/12/01 13:14:50;;;;;;;13.30;10.10;;;;;;;;;;5042254;28;20832;-66
2022/12/01 13:17:16;;;;;;;10.27;8.53;;;;;;;;;;5043392;28;20509;-66
2022/12/01 13:19:43;;;;;;;12.30;10.27;;;;;;;;;;5047290;28;20518;-65
2022/12/01 13:22:11;;;;;;;14.97;9.87;;;;;;;;;;5047442;28;20434;-66
2022/12/01 13:24:37;;;;;;;11.07;9.90;;;;;;;;;;5045635;28;20949;-65
2022/12/01 13:27:05;;;;;;;11.90;9.80;;;;;;;;;;5047755;28;21001;-65
2022/12/01 13:29:34;;;;;;;15.82;11.90;;;;;;;;;;5046559;28;20463;-65
2022/12/01 13:32:01;;;;;;;16.07;11.37;;;;;;;;;;5047550;28;20219;-66
2022/12/01 13:34:37;;;;;;;18.97;12.23;;;;;;;;;;5048076;28;20517;-65
2022/12/01 13:37:04;;;;;;;13.93;8.70;;;;;;;;;;5047296;28;20768;-66
2022/12/01 13:39:34;;;;;;;13.17;9.43;;;;;;;;;;5048348;28;20422;-66
2022/12/01 13:42:19;;;;;;;14.77;9.67;;;;;;;;;;5048940;28;21845;-65
2022/12/01 13:44:50;;;;;;;13.63;9.97;;;;;;;;;;5046056;28;20805;-65
2022/12/01 13:47:16;;;;;;;9.20;8.33;;;;;;;;;;5047841;28;20473;-65
2022/12/01 13:49:44;;;;;;;11.87;9.33;;;;;;;;;;5048276;28;20422;-65
2022/12/01 13:52:15;;;;;;;13.40;10.50;;;;;;;;;;5048677;28;20478;-66
2022/12/01 13:54:59;;;;;;;9.27;8.33;;;;;;;;;;5043427;28;20457;-66
2022/12/01 13:57:26;;;;;;;11.90;9.53;;;;;;;;;;5048407;28;20446;-66
2022/12/01 13:59:58;;;;;;;12.63;8.67;;;;;;;;;;5047049;28;21694;-66
2022/12/01 14:02:25;;;;;;;15.30;10.50;;;;;;;;;;5046146;28;20430;-66
2022/12/01 14:04:51;;;;;;;18.73;10.70;;;;;;;;;;5042001;28;20631;-66
2022/12/01 14:07:22;;;;;;;12.17;9.97;;;;;;;;;;5047614;28;20942;-66
2022/12/01 14:09:53;;;;;;;14.00;10.13;;;;;;;;;;5045486;28;20462;-66
2022/12/01 14:12:25;;;;;;;17.13;9.20;;;;;;;;;;5046779;28;20511;-66
2022/12/01 14:14:57;;;;;;;18.23;9.67;;;;;;;;;;5046934;28;20482;-66
2022/12/01 14:17:25;;;;;;;10.47;9.30;;;;;;;;;;5047659;28;20431;-66
2022/12/01 14:19:52;;;;;;;17.63;10.97;;;;;;;;;;5046780;28;20426;-66
2022/12/01 14:22:36;;;;;;;14.50;9.80;;;;;;;;;;5044370;28;20454;-67
2022/12/01 14:25:04;;;;;;;12.83;10.43;;;;;;;;;;5046971;28;20426;-66
2022/12/01 14:27:37;;;;;;;12.07;9.23;;;;;;;;;;5048598;28;20430;-67
2022/12/01 14:30:21;;;;;;;14.60;10.23;;;;;;;;;;5046429;28;20445;-67
2022/12/01 14:32:47;;;;;;;16.20;10.90;;;;;;;;;;5048616;28;20490;-68
2022/12/01 14:35:14;;;;;;;13.10;9.80;;;;;;;;;;5050007;28;20971;-66
2022/12/01 14:37:43;;;;;;;12.67;9.10;;;;;;;;;;5049541;28;20426;-66
2022/12/01 14:40:13;;;;;;;13.13;10.20;;;;;;;;;;5051589;28;20460;-66
2022/12/01 14:45:51;;;;;;;14.80;10.13;;;;;;;;;;5050131;28;20480;-66
2022/12/01 14:48:19;;;;;;;16.03;10.57;;;;;;;;;;5017236;28;20477;-67
2022/12/01 14:50:49;;;;;;;15.70;10.00;;;;;;;;;;5049415;28;20414;-66